Flight Track Log - Related Links

Times and Time Zones

All times are in EDT time to prevent confusion due to time zone crossing. See the N543PU flight status page for this flight to view local times or setup timezone preferences in your user account.

Time Position Orientation Groundspeed Altitude Reporting Facility
EDT Latitude Longitude Course Direction KTS MPH feet Rate Location/Type
Fri 10:43:09 AM 40.9389 -85.2778 247° West 105 121 3,000  Level Chicago Center
Fri 10:44:11 AM 40.9289 -85.3119 249° West 103 119 3,800 484 Climbing Chicago Center
Fri 10:45:13 AM 40.9183 -85.3514 251° West 106 122 4,000 48 Climbing Chicago Center
Fri 10:46:15 AM 40.9022 -85.4003 246° West 122 140 3,900  Descending Chicago Center
Fri 10:46:54 AM 40.8889 -85.4422 247° West 140 161 4,000 138 Climbing Chicago Center
Fri 10:47:00 AM 40.8761 -85.4615 247° West  Level FlightAware Approximate
Fri 10:47:42 AM 40.8775 -85.4803 248° West 138 159 4,100  Level Chicago Center
Fri 10:48:00 AM 40.8613 -85.5080 247° West  Level FlightAware Approximate
Fri 10:48:19 AM 40.8664 -85.5050 239° Southwest 140 161 4,000  Level Chicago Center
Fri 10:49:22 AM 40.8503 -85.5533 246° West 141 162 4,000  Level Chicago Center
Fri 10:50:24 AM 40.8325 -85.6008 244° Southwest 143 165 4,000  Level Chicago Center
Fri 10:51:26 AM 40.8111 -85.6447 237° Southwest 144 166 4,000  Level Chicago Center
Fri 10:52:28 AM 40.7908 -85.6903 240° Southwest 144 166 4,000 48 Level Chicago Center
Fri 10:53:30 AM 40.7692 -85.7444 242° Southwest 140 161 4,100  Climbing Chicago Center
Fri 10:54:32 AM 40.7503 -85.7903 241° Southwest 141 162 4,000 -48 Descending Chicago Center
Fri 10:55:34 AM 40.7311 -85.8367 241° Southwest 144 166 4,000  Level Chicago Center
Fri 10:56:36 AM 40.7111 -85.8839 241° Southwest 147 169 4,000  Level Chicago Center
Fri 10:57:38 AM 40.6919 -85.9303 241° Southwest 145 167 4,000  Level Chicago Center
Fri 10:58:40 AM 40.6769 -85.9844 250° West 144 166 4,000  Level Chicago Center
Fri 10:59:42 AM 40.6547 -86.0300 237° Southwest 147 169 4,000  Level Chicago Center
Fri 11:00:44 AM 40.6353 -86.0747 240° Southwest 144 166 4,000  Level Chicago Center
Fri 11:01:46 AM 40.6150 -86.1333 246° West 146 168 4,000  Level Chicago Center
Fri 11:02:49 AM 40.5942 -86.1781 238° Southwest 145 167 4,000  Level Chicago Center
Fri 11:03:51 AM 40.5739 -86.2253 241° Southwest 147 169 4,000 -242 Level Chicago Center
Fri 11:04:53 AM 40.5550 -86.2731 243° Southwest 147 169 3,500 -484 Descending Chicago Center
Fri 11:05:55 AM 40.5347 -86.3275 244° Southwest 155 178 3,000 -242 Descending Chicago Center
Fri 11:06:57 AM 40.5156 -86.3769 243° Southwest 157 181 3,000  Level Chicago Center
Fri 11:07:59 AM 40.4925 -86.4294 240° Southwest 149 171 3,000  Level Chicago Center
Fri 11:09:01 AM 40.4719 -86.4733 238° Southwest 145 167 3,000  Level Chicago Center
Fri 11:10:02 AM 40.4533 -86.5236 244° Southwest 144 166 3,000 50 Level Chicago Center
Fri 11:11:02 AM 40.4328 -86.5714 241° Southwest 143 165 3,100  Climbing Chicago Center
Fri 11:12:03 AM 40.4144 -86.6169 242° Southwest 143 165 3,000 -50 Descending Chicago Center
Fri 11:13:03 AM 40.3961 -86.6647 243° Southwest 145 167 3,000 -328 Level Chicago Center
Fri 11:14:11 AM 40.3858 -86.7192 256° West 155 178 2,300 -344 Descending Chicago Center
Fri 11:15:05 AM 40.3900 -86.7681 276° West 140 161 2,300  Level Chicago Center
Fri 11:16:05 AM 40.3947 -86.8094 279° West 122 140 2,300 -397 Level Chicago Center
Fri 11:17:06 AM 40.4017 -86.8508 282° West 116 133 1,500 -550 Descending Chicago Center
Fri 11:17:54 AM 40.4047 -86.8811 278° West 106 122 1,300 -250 Descending Chicago Center
Fri 11:20:00 AM 40.4000 -86.9333 276° West  Level FlightAware Approximate
Fri 11:27:00 AM 40.4123 -86.9369 276° West  Level Estimated
Fri 11:28:00 AM 40.4123 -86.9369 276° West  Level Estimated
Fri 11:29:00 AM 40.4123 -86.9369 276° West  Level Estimated

Login

Don't have an account? Register now (free) for customized features, flight alerts, and more!